AAN127 SAEZ-SBRF
Flight info
| Callsign | AAN127 |
|---|---|
| Flight time | N/A |
| Altitude | 33000 |
| Route | DORVO1A DORVO UN857 ITBEB UM540 KOXAG/N0448F350 UM540 ANISE UZ23 ANBEX |
| Aircraft | B738/M-SDE2E3FGHIRWXY/LB1 |
Departure
| Time | 2026-05-05 15:20 |
|---|---|
| Airport | Ezeiza International Airport - Ministro Pistarini (SAEZ) |
Arrival
| Time | N/A |
|---|---|
| Airport | Recife/Guararapes - Gilberto Freyre International Airport (SBRF) |
| Time | Latitude | Longitude | Altitude | Speed | Heading |
|---|---|---|---|---|---|
| 2026-05-05 15:15 | -34.81610 | -58.53627 | 71 ft | 0 kts | 297° |
| 2026-05-05 15:17 | -34.81595 | -58.53700 | 71 ft | 16 kts | 266° |
| 2026-05-05 15:17 | -34.81662 | -58.53806 | 72 ft | 16 kts | 221° |
| 2026-05-05 15:18 | -34.81729 | -58.53908 | 72 ft | 15 kts | 239° |
| 2026-05-05 15:18 | -34.81781 | -58.54017 | 64 ft | 15 kts | 245° |
| 2026-05-05 15:18 | -34.81793 | -58.54136 | 64 ft | 14 kts | 282° |
| 2026-05-05 15:18 | -34.81771 | -58.54248 | 68 ft | 13 kts | 283° |
| 2026-05-05 15:19 | -34.81782 | -58.54355 | 65 ft | 13 kts | 240° |
| 2026-05-05 15:19 | -34.81853 | -58.54423 | 71 ft | 17 kts | 214° |
| 2026-05-05 15:19 | -34.81960 | -58.54515 | 67 ft | 19 kts | 216° |
| 2026-05-05 15:19 | -34.82062 | -58.54485 | 69 ft | 18 kts | 115° |
| 2026-05-05 15:20 | -34.82134 | -58.54069 | 72 ft | 90 kts | 102° |
| 2026-05-05 15:20 | -34.82318 | -58.53040 | 75 ft | 158 kts | 101° |
| 2026-05-05 15:20 | -34.82570 | -58.51555 | 396 ft | 192 kts | 101° |
| 2026-05-05 15:20 | -34.82880 | -58.49932 | 1272 ft | 199 kts | 113° |
| 2026-05-05 15:21 | -34.83767 | -58.48661 | 2303 ft | 206 kts | 137° |
| 2026-05-05 15:21 | -34.84862 | -58.47357 | 2610 ft | 234 kts | 134° |
| 2026-05-05 15:21 | -34.86041 | -58.45910 | 2999 ft | 246 kts | 132° |
| 2026-05-05 15:21 | -34.86972 | -58.44127 | 3536 ft | 254 kts | 117° |
| 2026-05-05 15:22 | -34.87856 | -58.42137 | 3901 ft | 278 kts | 119° |
| 2026-05-05 15:22 | -34.88830 | -58.40037 | 4509 ft | 289 kts | 120° |
| 2026-05-05 15:22 | -34.89846 | -58.37877 | 5112 ft | 299 kts | 120° |
| 2026-05-05 15:22 | -34.90811 | -58.35629 | 5853 ft | 301 kts | 106° |
| 2026-05-05 15:23 | -34.91263 | -58.33173 | 6588 ft | 301 kts | 97° |
| 2026-05-05 15:23 | -34.91625 | -58.30610 | 7240 ft | 305 kts | 97° |
| 2026-05-05 15:23 | -34.91978 | -58.28073 | 7895 ft | 309 kts | 98° |
| 2026-05-05 15:23 | -34.92346 | -58.25467 | 8558 ft | 313 kts | 98° |
| 2026-05-05 15:24 | -34.92725 | -58.22830 | 9216 ft | 317 kts | 99° |
| 2026-05-05 15:24 | -34.93115 | -58.20162 | 9884 ft | 322 kts | 99° |
| 2026-05-05 15:24 | -34.93514 | -58.17451 | 10374 ft | 331 kts | 99° |
| 2026-05-05 15:24 | -34.93930 | -58.14632 | 10514 ft | 353 kts | 99° |
| 2026-05-05 15:25 | -34.94382 | -58.11572 | 10676 ft | 372 kts | 99° |
| 2026-05-05 15:25 | -34.94846 | -58.08431 | 10914 ft | 387 kts | 99° |
| 2026-05-05 15:25 | -34.95327 | -58.05181 | 11385 ft | 392 kts | 99° |
| 2026-05-05 15:25 | -34.95812 | -58.01898 | 11965 ft | 395 kts | 99° |
| 2026-05-05 15:26 | -34.96301 | -57.98581 | 12549 ft | 398 kts | 99° |
| 2026-05-05 15:26 | -34.96791 | -57.95249 | 13099 ft | 402 kts | 99° |
| 2026-05-05 15:26 | -34.97027 | -57.91849 | 13585 ft | 404 kts | 82° |
| 2026-05-05 15:26 | -34.96357 | -57.88555 | 14118 ft | 401 kts | 63° |
| 2026-05-05 15:27 | -34.94914 | -57.85682 | 14622 ft | 395 kts | 47° |
| 2026-05-05 15:27 | -34.93160 | -57.83093 | 15113 ft | 398 kts | 45° |
| 2026-05-05 15:27 | -34.91358 | -57.80513 | 15567 ft | 402 kts | 45° |
| 2026-05-05 15:27 | -34.89529 | -57.77897 | 16065 ft | 406 kts | 45° |
| 2026-05-05 15:28 | -34.87723 | -57.75295 | 16544 ft | 409 kts | 45° |
| 2026-05-05 15:28 | -34.85865 | -57.72593 | 17023 ft | 413 kts | 45° |
| 2026-05-05 15:28 | -34.84033 | -57.69916 | 17485 ft | 417 kts | 45° |
| 2026-05-05 15:28 | -34.82169 | -57.67183 | 17955 ft | 421 kts | 45° |
| 2026-05-05 15:29 | -34.80289 | -57.64425 | 18397 ft | 425 kts | 45° |
| 2026-05-05 15:29 | -34.78391 | -57.61642 | 18788 ft | 429 kts | 45° |
| 2026-05-05 15:29 | -34.76479 | -57.58839 | 19216 ft | 432 kts | 45° |
| 2026-05-05 15:29 | -34.74556 | -57.56024 | 19638 ft | 434 kts | 45° |
| 2026-05-05 15:30 | -34.72614 | -57.53186 | 20056 ft | 438 kts | 45° |
| 2026-05-05 15:30 | -34.70659 | -57.50334 | 20474 ft | 441 kts | 45° |
| 2026-05-05 15:30 | -34.68686 | -57.47463 | 20889 ft | 444 kts | 45° |
| 2026-05-05 15:30 | -34.66698 | -57.44577 | 21281 ft | 447 kts | 45° |
| 2026-05-05 15:31 | -34.65368 | -57.42648 | 21542 ft | 449 kts | 45° |
| 2026-05-05 15:31 | -34.62679 | -57.38746 | 22052 ft | 453 kts | 45° |
| 2026-05-05 15:31 | -34.61333 | -57.36794 | 22307 ft | 455 kts | 45° |
| 2026-05-05 15:31 | -34.59295 | -57.33841 | 22685 ft | 458 kts | 45° |
| 2026-05-05 15:32 | -34.57242 | -57.30867 | 23055 ft | 461 kts | 45° |
| 2026-05-05 15:32 | -34.55183 | -57.27886 | 23425 ft | 463 kts | 45° |
| 2026-05-05 15:32 | -34.53098 | -57.24870 | 23750 ft | 466 kts | 45° |
| 2026-05-05 15:32 | -34.51010 | -57.21853 | 24047 ft | 469 kts | 45° |
| 2026-05-05 15:33 | -34.48940 | -57.18865 | 24352 ft | 471 kts | 45° |
| 2026-05-05 15:33 | -34.46803 | -57.15781 | 24672 ft | 473 kts | 45° |
| 2026-05-05 15:33 | -34.44676 | -57.12715 | 24971 ft | 475 kts | 45° |
| 2026-05-05 15:33 | -34.42549 | -57.09652 | 25261 ft | 477 kts | 45° |
| 2026-05-05 15:34 | -34.40406 | -57.06568 | 25552 ft | 480 kts | 45° |
| 2026-05-05 15:34 | -34.38282 | -57.03514 | 25818 ft | 482 kts | 45° |
| 2026-05-05 15:34 | -34.36074 | -57.00342 | 26104 ft | 484 kts | 45° |
| 2026-05-05 15:34 | -34.33922 | -56.97254 | 26387 ft | 486 kts | 45° |
| 2026-05-05 15:35 | -34.31733 | -56.94114 | 26658 ft | 489 kts | 45° |
| 2026-05-05 15:35 | -34.29538 | -56.90967 | 26920 ft | 491 kts | 45° |
| 2026-05-05 15:35 | -34.26583 | -56.86739 | 27256 ft | 494 kts | 45° |
| 2026-05-05 15:35 | -34.25111 | -56.84635 | 27433 ft | 495 kts | 45° |
| 2026-05-05 15:36 | -34.22883 | -56.81457 | 27679 ft | 497 kts | 45° |
| 2026-05-05 15:36 | -34.20634 | -56.78255 | 27921 ft | 499 kts | 45° |
| 2026-05-05 15:36 | -34.18385 | -56.75056 | 28169 ft | 501 kts | 45° |
| 2026-05-05 15:36 | -34.16145 | -56.71871 | 28416 ft | 503 kts | 45° |
| 2026-05-05 15:37 | -34.13906 | -56.68690 | 28681 ft | 504 kts | 45° |
| 2026-05-05 15:37 | -34.11641 | -56.65471 | 29029 ft | 502 kts | 45° |
| 2026-05-05 15:37 | -34.09383 | -56.62264 | 29426 ft | 501 kts | 45° |
| 2026-05-05 15:37 | -34.07134 | -56.59074 | 29772 ft | 501 kts | 45° |
| 2026-05-05 15:38 | -34.04882 | -56.55884 | 30057 ft | 501 kts | 45° |
| 2026-05-05 15:38 | -34.02615 | -56.52677 | 30326 ft | 501 kts | 45° |
| 2026-05-05 15:38 | -34.00355 | -56.49480 | 30619 ft | 500 kts | 44° |
| 2026-05-05 15:38 | -33.98103 | -56.46298 | 30891 ft | 499 kts | 45° |
| 2026-05-05 15:39 | -33.95847 | -56.43114 | 31122 ft | 500 kts | 44° |
| 2026-05-05 15:39 | -33.93583 | -56.39922 | 31337 ft | 501 kts | 44° |
| 2026-05-05 15:39 | -33.91319 | -56.36730 | 31596 ft | 500 kts | 44° |
| 2026-05-05 15:39 | -33.89049 | -56.33534 | 31851 ft | 500 kts | 44° |
| 2026-05-05 15:40 | -33.86810 | -56.30401 | 32092 ft | 500 kts | 44° |
| 2026-05-05 15:40 | -33.84508 | -56.27216 | 32382 ft | 498 kts | 44° |
| 2026-05-05 15:40 | -33.82264 | -56.24119 | 32685 ft | 496 kts | 44° |
| 2026-05-05 15:40 | -33.79997 | -56.20990 | 32952 ft | 495 kts | 44° |
| 2026-05-05 15:41 | -33.77732 | -56.17852 | 33035 ft | 498 kts | 44° |
| 2026-05-05 15:41 | -33.73202 | -56.11519 | 33029 ft | 499 kts | 44° |
| 2026-05-05 15:42 | -33.68702 | -56.05208 | 33039 ft | 495 kts | 44° |
| 2026-05-05 15:42 | -33.64226 | -55.98953 | 33031 ft | 493 kts | 44° |
| 2026-05-05 15:43 | -33.59758 | -55.92727 | 33039 ft | 492 kts | 44° |
| 2026-05-05 15:43 | -33.55289 | -55.86515 | 33045 ft | 491 kts | 44° |
| 2026-05-05 15:44 | -33.50841 | -55.80344 | 33037 ft | 492 kts | 44° |
| 2026-05-05 15:44 | -33.46356 | -55.74131 | 33044 ft | 493 kts | 44° |
| 2026-05-05 15:45 | -33.41856 | -55.67906 | 33046 ft | 495 kts | 44° |
| 2026-05-05 15:45 | -33.37328 | -55.61654 | 33044 ft | 497 kts | 44° |
| 2026-05-05 15:46 | -33.32783 | -55.55389 | 33048 ft | 499 kts | 44° |
| 2026-05-05 15:46 | -33.28213 | -55.49099 | 33041 ft | 501 kts | 44° |
| 2026-05-05 15:47 | -33.23645 | -55.42822 | 33043 ft | 501 kts | 44° |
| 2026-05-05 15:47 | -33.19092 | -55.36578 | 33049 ft | 501 kts | 44° |
| 2026-05-05 15:48 | -33.14512 | -55.30307 | 33047 ft | 500 kts | 44° |
| 2026-05-05 15:48 | -33.09938 | -55.24055 | 33048 ft | 499 kts | 44° |
| 2026-05-05 15:49 | -33.05368 | -55.17821 | 33050 ft | 498 kts | 44° |
| 2026-05-05 15:49 | -33.00812 | -55.11615 | 33052 ft | 497 kts | 44° |
| 2026-05-05 15:50 | -32.96287 | -55.05463 | 33051 ft | 497 kts | 44° |
| 2026-05-05 15:50 | -32.91736 | -54.99285 | 33053 ft | 496 kts | 44° |
| 2026-05-05 15:51 | -32.87182 | -54.93116 | 33053 ft | 495 kts | 44° |
| 2026-05-05 15:51 | -32.82631 | -54.86958 | 33066 ft | 495 kts | 44° |
| 2026-05-05 15:52 | -32.78080 | -54.80813 | 33055 ft | 496 kts | 44° |
| 2026-05-05 15:52 | -32.73509 | -54.74651 | 33058 ft | 496 kts | 44° |
| 2026-05-05 15:53 | -32.68939 | -54.68499 | 33065 ft | 496 kts | 44° |
| 2026-05-05 15:53 | -32.64362 | -54.62349 | 33054 ft | 497 kts | 44° |
| 2026-05-05 15:54 | -32.59810 | -54.56244 | 33061 ft | 497 kts | 44° |
| 2026-05-05 15:54 | -32.55212 | -54.50085 | 33059 ft | 497 kts | 44° |
| 2026-05-05 15:55 | -32.50624 | -54.43950 | 33055 ft | 498 kts | 44° |
| 2026-05-05 15:55 | -32.46024 | -54.37810 | 33050 ft | 498 kts | 44° |
| 2026-05-05 15:56 | -32.41420 | -54.31673 | 33053 ft | 498 kts | 44° |
| 2026-05-05 15:56 | -32.36848 | -54.25588 | 33044 ft | 498 kts | 44° |
| 2026-05-05 15:57 | -32.32250 | -54.19459 | 33042 ft | 498 kts | 44° |
| 2026-05-05 15:57 | -32.27688 | -54.13281 | 33047 ft | 497 kts | 44° |
| 2026-05-05 15:58 | -32.23140 | -54.07114 | 33050 ft | 497 kts | 44° |
| 2026-05-05 15:58 | -32.18620 | -54.01009 | 33057 ft | 496 kts | 44° |
| 2026-05-05 15:59 | -32.14070 | -53.94881 | 33063 ft | 495 kts | 44° |
| 2026-05-05 15:59 | -32.09532 | -53.88777 | 33069 ft | 495 kts | 44° |
| 2026-05-05 16:00 | -32.04992 | -53.82682 | 33070 ft | 495 kts | 44° |
| 2026-05-05 16:00 | -32.00443 | -53.76586 | 33068 ft | 495 kts | 44° |
| 2026-05-05 16:01 | -31.95894 | -53.70496 | 33064 ft | 495 kts | 44° |
| 2026-05-05 16:01 | -31.91370 | -53.64448 | 33087 ft | 495 kts | 44° |
| 2026-05-05 16:02 | -31.86809 | -53.58361 | 33311 ft | 495 kts | 44° |
| 2026-05-05 16:02 | -31.84537 | -53.55333 | 33062 ft | 496 kts | 44° |
| 2026-05-05 16:02 | -31.82249 | -53.52284 | 33086 ft | 496 kts | 44° |
| 2026-05-05 16:03 | -31.77671 | -53.46193 | 33085 ft | 497 kts | 44° |
| 2026-05-05 16:03 | -31.73089 | -53.40107 | 33064 ft | 498 kts | 44° |
| 2026-05-05 16:04 | -31.68519 | -53.34046 | 33087 ft | 498 kts | 44° |
| 2026-05-05 16:04 | -31.63915 | -53.27951 | 33079 ft | 499 kts | 44° |
| 2026-05-05 16:05 | -31.59310 | -53.21862 | 33079 ft | 499 kts | 44° |
| 2026-05-05 16:05 | -31.54699 | -53.15777 | 33076 ft | 498 kts | 44° |
| 2026-05-05 16:06 | -31.50087 | -53.09700 | 33088 ft | 498 kts | 44° |
| 2026-05-05 16:06 | -31.45481 | -53.03639 | 33080 ft | 498 kts | 44° |
| 2026-05-05 16:07 | -31.40898 | -52.97619 | 33096 ft | 497 kts | 44° |
| 2026-05-05 16:07 | -31.36293 | -52.91579 | 33065 ft | 496 kts | 44° |
| 2026-05-05 16:08 | -31.31697 | -52.85560 | 33091 ft | 496 kts | 44° |
| 2026-05-05 16:08 | -31.27099 | -52.79521 | 33081 ft | 496 kts | 45° |
| 2026-05-05 16:09 | -31.22523 | -52.73508 | 33086 ft | 495 kts | 44° |
| 2026-05-05 16:09 | -31.17922 | -52.67510 | 33085 ft | 495 kts | 44° |
| 2026-05-05 16:10 | -31.13320 | -52.61536 | 33075 ft | 495 kts | 44° |
| 2026-05-05 16:10 | -31.08715 | -52.55559 | 33092 ft | 495 kts | 44° |
| 2026-05-05 16:11 | -31.04142 | -52.49630 | 33089 ft | 495 kts | 44° |
| 2026-05-05 16:12 | -30.94915 | -52.37692 | 33088 ft | 496 kts | 44° |
| 2026-05-05 16:13 | -30.83279 | -52.22895 | 33089 ft | 495 kts | 43° |
| 2026-05-05 16:13 | -30.78563 | -52.17042 | 33090 ft | 496 kts | 43° |
| 2026-05-05 16:14 | -30.69176 | -52.05353 | 33088 ft | 496 kts | 43° |
| 2026-05-05 16:15 | -30.59746 | -51.93637 | 33095 ft | 496 kts | 43° |
| 2026-05-05 16:16 | -30.50351 | -51.81991 | 33091 ft | 496 kts | 43° |
| 2026-05-05 16:17 | -30.43262 | -51.73199 | 33090 ft | 496 kts | 44° |
| 2026-05-05 16:18 | -30.36390 | -51.64220 | 33096 ft | 496 kts | 45° |
| 2026-05-05 16:19 | -30.30311 | -51.56250 | 33095 ft | 496 kts | 45° |
| 2026-05-05 16:19 | -30.22691 | -51.46348 | 33095 ft | 495 kts | 45° |
| 2026-05-05 16:20 | -30.14305 | -51.35486 | 33084 ft | 494 kts | 45° |
| 2026-05-05 16:22 | -30.02835 | -51.20670 | 33080 ft | 494 kts | 45° |
| 2026-05-05 16:23 | -29.93689 | -51.08920 | 33083 ft | 493 kts | 44° |
| 2026-05-05 16:23 | -29.86807 | -51.00116 | 33079 ft | 493 kts | 44° |
| 2026-05-05 16:24 | -29.82216 | -50.94249 | 33088 ft | 493 kts | 44° |
| 2026-05-05 16:25 | -29.75325 | -50.85458 | 33100 ft | 492 kts | 44° |
| 2026-05-05 16:25 | -29.68428 | -50.76680 | 33102 ft | 493 kts | 44° |
| 2026-05-05 16:26 | -29.59255 | -50.65031 | 33116 ft | 493 kts | 44° |
| 2026-05-05 16:27 | -29.54648 | -50.59194 | 33130 ft | 492 kts | 44° |
| 2026-05-05 16:27 | -29.52289 | -50.56346 | 33022 ft | 490 kts | 39° |
| 2026-05-05 16:27 | -29.49677 | -50.53891 | 33115 ft | 484 kts | 33° |
| 2026-05-05 16:28 | -29.44249 | -50.49296 | 33138 ft | 484 kts | 32° |
| 2026-05-05 16:28 | -29.38810 | -50.44728 | 33145 ft | 485 kts | 32° |
| 2026-05-05 16:29 | -29.33418 | -50.40141 | 33151 ft | 486 kts | 32° |
| 2026-05-05 16:29 | -29.27994 | -50.35495 | 33160 ft | 486 kts | 33° |
| 2026-05-05 16:30 | -29.22569 | -50.30850 | 33153 ft | 487 kts | 33° |
| 2026-05-05 16:30 | -29.17128 | -50.26202 | 33156 ft | 488 kts | 33° |
| 2026-05-05 16:31 | -29.11688 | -50.21561 | 33156 ft | 488 kts | 32° |
| 2026-05-05 16:31 | -29.06271 | -50.16947 | 33153 ft | 488 kts | 32° |
| 2026-05-05 16:32 | -29.00817 | -50.12308 | 33146 ft | 488 kts | 32° |
| 2026-05-05 16:32 | -28.95394 | -50.07701 | 33152 ft | 488 kts | 32° |
| 2026-05-05 16:33 | -28.89955 | -50.03087 | 33150 ft | 487 kts | 32° |
| 2026-05-05 16:33 | -28.84527 | -49.98488 | 33149 ft | 486 kts | 32° |
| 2026-05-05 16:34 | -28.79089 | -49.93887 | 33150 ft | 485 kts | 32° |
| 2026-05-05 16:34 | -28.73670 | -49.89305 | 33141 ft | 484 kts | 32° |
| 2026-05-05 16:35 | -28.68270 | -49.84748 | 33159 ft | 482 kts | 32° |
| 2026-05-05 16:35 | -28.62879 | -49.80186 | 33156 ft | 482 kts | 32° |
| 2026-05-05 16:36 | -28.57545 | -49.75669 | 33166 ft | 480 kts | 33° |
| 2026-05-05 16:36 | -28.52171 | -49.71129 | 33166 ft | 481 kts | 33° |
| 2026-05-05 16:37 | -28.46788 | -49.66587 | 33164 ft | 483 kts | 33° |
| 2026-05-05 16:37 | -28.41369 | -49.62042 | 33157 ft | 485 kts | 32° |
| 2026-05-05 16:38 | -28.35920 | -49.57485 | 33163 ft | 486 kts | 33° |
| 2026-05-05 16:38 | -28.30481 | -49.52936 | 33159 ft | 487 kts | 32° |
| 2026-05-05 16:39 | -28.25033 | -49.48383 | 33160 ft | 486 kts | 33° |
| 2026-05-05 16:39 | -28.19634 | -49.43882 | 33181 ft | 483 kts | 33° |
| 2026-05-05 16:40 | -28.14185 | -49.39355 | 33164 ft | 482 kts | 32° |
| 2026-05-05 16:40 | -28.08811 | -49.34895 | 33158 ft | 482 kts | 33° |
| 2026-05-05 16:41 | -28.03443 | -49.30365 | 33165 ft | 481 kts | 33° |
| 2026-05-05 16:41 | -27.98089 | -49.25801 | 33146 ft | 481 kts | 33° |
| 2026-05-05 16:42 | -27.92747 | -49.21265 | 33165 ft | 480 kts | 33° |
| 2026-05-05 16:42 | -27.87390 | -49.16741 | 33164 ft | 480 kts | 33° |
| 2026-05-05 16:43 | -27.81948 | -49.12364 | 33153 ft | 479 kts | 32° |
| 2026-05-05 16:43 | -27.76518 | -49.08056 | 33151 ft | 480 kts | 32° |
| 2026-05-05 16:44 | -27.71076 | -49.03705 | 33155 ft | 480 kts | 32° |
| 2026-05-05 16:44 | -27.65657 | -48.99266 | 33151 ft | 480 kts | 33° |
| 2026-05-05 16:45 | -27.60283 | -48.94800 | 33155 ft | 480 kts | 33° |
| 2026-05-05 16:45 | -27.54878 | -48.90345 | 33138 ft | 480 kts | 33° |
| 2026-05-05 16:46 | -27.49493 | -48.85917 | 33135 ft | 479 kts | 33° |
| 2026-05-05 16:46 | -27.44104 | -48.81488 | 33134 ft | 479 kts | 33° |
| 2026-05-05 16:47 | -27.38730 | -48.77074 | 33126 ft | 478 kts | 33° |
| 2026-05-05 16:47 | -27.33380 | -48.72684 | 33134 ft | 478 kts | 33° |
| 2026-05-05 16:48 | -27.28001 | -48.68276 | 33136 ft | 478 kts | 33° |
| 2026-05-05 16:48 | -27.24405 | -48.65320 | 33133 ft | 478 kts | 33° |
| 2026-05-05 16:49 | -27.17252 | -48.59339 | 33132 ft | 478 kts | 33° |
| 2026-05-05 16:49 | -27.11853 | -48.54963 | 33131 ft | 478 kts | 33° |
| 2026-05-05 16:50 | -27.06449 | -48.50605 | 33134 ft | 479 kts | 33° |
| 2026-05-05 16:50 | -27.01038 | -48.46237 | 33129 ft | 479 kts | 33° |
| 2026-05-05 16:51 | -26.95626 | -48.41869 | 33134 ft | 479 kts | 33° |
| 2026-05-05 16:51 | -26.90220 | -48.37512 | 33135 ft | 479 kts | 33° |
| 2026-05-05 16:52 | -26.84812 | -48.33158 | 33138 ft | 479 kts | 33° |
| 2026-05-05 16:52 | -26.79393 | -48.28799 | 33140 ft | 479 kts | 33° |
| 2026-05-05 16:53 | -26.73980 | -48.24451 | 33136 ft | 479 kts | 33° |
| 2026-05-05 16:53 | -26.68557 | -48.20096 | 33157 ft | 479 kts | 33° |
| 2026-05-05 16:54 | -26.63139 | -48.15735 | 33148 ft | 479 kts | 33° |
| 2026-05-05 16:54 | -26.57770 | -48.11417 | 33136 ft | 479 kts | 33° |
| 2026-05-05 16:55 | -26.52344 | -48.07058 | 33145 ft | 479 kts | 33° |
| 2026-05-05 16:55 | -26.46921 | -48.02708 | 33149 ft | 479 kts | 33° |
| 2026-05-05 16:56 | -26.41497 | -47.98362 | 33149 ft | 479 kts | 33° |
| 2026-05-05 16:56 | -26.36082 | -47.94027 | 33152 ft | 479 kts | 33° |
| 2026-05-05 16:57 | -26.30684 | -47.89710 | 33144 ft | 479 kts | 33° |
| 2026-05-05 16:57 | -26.25269 | -47.85379 | 33158 ft | 479 kts | 33° |
| 2026-05-05 16:58 | -26.19845 | -47.81044 | 33147 ft | 479 kts | 33° |
| 2026-05-05 16:58 | -26.14419 | -47.76712 | 33151 ft | 479 kts | 33° |
| 2026-05-05 16:59 | -26.08989 | -47.72389 | 33160 ft | 479 kts | 33° |
| 2026-05-05 16:59 | -26.03564 | -47.68085 | 33148 ft | 479 kts | 33° |
| 2026-05-05 17:00 | -25.98126 | -47.63775 | 33160 ft | 480 kts | 33° |
| 2026-05-05 17:00 | -25.93606 | -47.60194 | 33154 ft | 480 kts | 33° |
| 2026-05-05 17:01 | -25.88168 | -47.55890 | 33157 ft | 480 kts | 33° |
| 2026-05-05 17:01 | -25.82730 | -47.51591 | 33156 ft | 480 kts | 33° |
| 2026-05-05 17:02 | -25.77305 | -47.47306 | 33152 ft | 480 kts | 33° |
| 2026-05-05 17:02 | -25.71843 | -47.42998 | 33154 ft | 480 kts | 33° |
| 2026-05-05 17:03 | -25.66393 | -47.38704 | 33165 ft | 480 kts | 33° |
| 2026-05-05 17:03 | -25.60930 | -47.34405 | 33161 ft | 481 kts | 33° |
| 2026-05-05 17:04 | -25.55477 | -47.30118 | 33154 ft | 481 kts | 33° |
| 2026-05-05 17:04 | -25.50050 | -47.25857 | 33155 ft | 480 kts | 33° |
| 2026-05-05 17:05 | -25.44564 | -47.21554 | 33156 ft | 480 kts | 33° |
| 2026-05-05 17:05 | -25.39146 | -47.17309 | 33159 ft | 480 kts | 33° |
| 2026-05-05 17:06 | -25.33696 | -47.13045 | 33158 ft | 480 kts | 33° |
| 2026-05-05 17:06 | -25.28875 | -47.09275 | 33158 ft | 479 kts | 33° |
| 2026-05-05 17:07 | -25.23437 | -47.05028 | 33153 ft | 479 kts | 33° |
| 2026-05-05 17:07 | -25.18276 | -47.01001 | 33154 ft | 479 kts | 33° |
| 2026-05-05 17:08 | -25.12867 | -46.96873 | 33153 ft | 478 kts | 30° |
| 2026-05-05 17:08 | -25.07116 | -46.93059 | 33157 ft | 477 kts | 28° |
| 2026-05-05 17:09 | -25.01373 | -46.89378 | 33159 ft | 477 kts | 28° |
| 2026-05-05 17:09 | -24.95652 | -46.85665 | 33155 ft | 477 kts | 28° |
| 2026-05-05 17:10 | -24.89943 | -46.81928 | 33157 ft | 477 kts | 28° |
| 2026-05-05 17:10 | -24.84244 | -46.78195 | 33157 ft | 477 kts | 28° |
| 2026-05-05 17:11 | -24.78574 | -46.74486 | 33157 ft | 477 kts | 28° |
| 2026-05-05 17:11 | -24.72861 | -46.70756 | 33161 ft | 477 kts | 28° |
| 2026-05-05 17:12 | -24.67133 | -46.67018 | 33157 ft | 477 kts | 28° |
| 2026-05-05 17:12 | -24.61336 | -46.63486 | 33147 ft | 475 kts | 20° |
| 2026-05-05 17:13 | -24.55016 | -46.61635 | 33155 ft | 468 kts | 4° |
| 2026-05-05 17:13 | -24.48593 | -46.60822 | 33154 ft | 468 kts | 3° |
| 2026-05-05 17:14 | -24.42120 | -46.60009 | 33155 ft | 469 kts | 3° |
| 2026-05-05 17:14 | -24.35635 | -46.59139 | 33153 ft | 470 kts | 4° |
| 2026-05-05 17:15 | -24.29138 | -46.58246 | 33154 ft | 470 kts | 4° |
| 2026-05-05 17:15 | -24.22646 | -46.57355 | 33155 ft | 471 kts | 4° |
| 2026-05-05 17:16 | -24.16137 | -46.56466 | 33158 ft | 471 kts | 4° |
| 2026-05-05 17:16 | -24.09605 | -46.55574 | 33155 ft | 471 kts | 4° |
| 2026-05-05 17:17 | -24.03128 | -46.54694 | 33150 ft | 472 kts | 4° |
| 2026-05-05 17:17 | -23.96612 | -46.53815 | 33154 ft | 472 kts | 4° |
| 2026-05-05 17:18 | -23.90073 | -46.52930 | 33146 ft | 473 kts | 5° |
| 2026-05-05 17:18 | -23.83661 | -46.51258 | 33152 ft | 476 kts | 13° |
| 2026-05-05 17:19 | -23.77287 | -46.49304 | 33226 ft | 476 kts | 13° |
| 2026-05-05 17:19 | -23.70880 | -46.47411 | 33236 ft | 476 kts | 12° |
| 2026-05-05 17:20 | -23.64480 | -46.45526 | 33236 ft | 476 kts | 12° |
| 2026-05-05 17:20 | -23.58114 | -46.43647 | 33226 ft | 476 kts | 12° |
| 2026-05-05 17:21 | -23.51702 | -46.41819 | 33238 ft | 475 kts | 12° |
| 2026-05-05 17:22 | -23.42117 | -46.39046 | 33240 ft | 475 kts | 12° |
| 2026-05-05 17:22 | -23.35706 | -46.37333 | 33232 ft | 474 kts | 9° |
| 2026-05-05 17:23 | -23.29244 | -46.35867 | 33218 ft | 474 kts | 9° |
| 2026-05-05 17:23 | -23.22792 | -46.34354 | 33207 ft | 474 kts | 9° |
| 2026-05-05 17:24 | -23.16354 | -46.32814 | 33195 ft | 474 kts | 9° |
| 2026-05-05 17:24 | -23.09910 | -46.31281 | 33177 ft | 474 kts | 9° |
| 2026-05-05 17:25 | -23.03459 | -46.29751 | 33186 ft | 474 kts | 9° |
| 2026-05-05 17:25 | -22.97043 | -46.28228 | 33188 ft | 475 kts | 9° |
| 2026-05-05 17:26 | -22.90584 | -46.26696 | 33188 ft | 475 kts | 9° |
| 2026-05-05 17:26 | -22.84117 | -46.25163 | 33194 ft | 475 kts | 9° |
| 2026-05-05 17:27 | -22.77689 | -46.23536 | 33189 ft | 477 kts | 16° |
| 2026-05-05 17:27 | -22.71724 | -46.20361 | 33194 ft | 481 kts | 35° |
| 2026-05-05 17:28 | -22.66442 | -46.15950 | 33198 ft | 481 kts | 38° |
| 2026-05-05 17:28 | -22.61266 | -46.11306 | 33201 ft | 482 kts | 39° |
| 2026-05-05 17:29 | -22.56109 | -46.06677 | 33206 ft | 482 kts | 39° |
| 2026-05-05 17:29 | -22.50912 | -46.02078 | 33206 ft | 482 kts | 39° |
| 2026-05-05 17:30 | -22.45698 | -45.97489 | 33195 ft | 483 kts | 39° |
| 2026-05-05 17:30 | -22.40522 | -45.92939 | 33190 ft | 483 kts | 39° |
| 2026-05-05 17:31 | -22.35274 | -45.88326 | 33200 ft | 483 kts | 39° |
| 2026-05-05 17:31 | -22.30091 | -45.83774 | 33191 ft | 483 kts | 39° |
| 2026-05-05 17:32 | -22.24868 | -45.79215 | 33182 ft | 482 kts | 38° |
| 2026-05-05 17:32 | -22.19628 | -45.74694 | 33195 ft | 482 kts | 38° |
| 2026-05-05 17:33 | -22.14389 | -45.70181 | 33176 ft | 482 kts | 38° |
| 2026-05-05 17:33 | -22.09119 | -45.65639 | 33182 ft | 482 kts | 38° |
| 2026-05-05 17:34 | -22.03875 | -45.61118 | 33186 ft | 481 kts | 38° |
| 2026-05-05 17:34 | -21.98611 | -45.56585 | 33175 ft | 481 kts | 38° |
| 2026-05-05 17:35 | -21.93377 | -45.52082 | 33180 ft | 481 kts | 38° |
| 2026-05-05 17:35 | -21.88148 | -45.47588 | 33192 ft | 481 kts | 38° |
| 2026-05-05 17:36 | -21.82920 | -45.43099 | 33178 ft | 481 kts | 38° |
| 2026-05-05 17:36 | -21.77630 | -45.38562 | 33173 ft | 481 kts | 38° |
| 2026-05-05 17:37 | -21.72378 | -45.34061 | 33189 ft | 481 kts | 38° |
| 2026-05-05 17:37 | -21.68006 | -45.30318 | 33174 ft | 481 kts | 38° |